Time;durP1;ratioP1;P1;durP2;ratioP2;P2;SDS_P1;SDS_P2;PMS_P1;PMS_P2;Temp;Humidity;BMP_temperature;BMP_pressure;BME280_temperature;BME280_humidity;BME280_pressure;Samples;Min_cycle;Max_cycle;Signal;HPM_P1;HPM_P2
2021/07/30 00:01:50;;;;;;;9.45;7.03;;;;;;;22.66;68.49;98799.84;1689022;84;21003;-40
2021/07/30 00:04:17;;;;;;;9.05;6.30;;;;;;;22.59;68.65;98797.97;1747136;81;21069;-40
2021/07/30 00:06:44;;;;;;;9.83;6.03;;;;;;;22.56;68.79;98800.27;1743796;81;21796;-40
2021/07/30 00:09:12;;;;;;;8.23;5.58;;;;;;;22.55;68.90;98799.50;1764345;81;21537;-40
2021/07/30 00:11:40;;;;;;;9.13;6.17;;;;;;;22.57;68.75;98802.56;1757610;81;21044;-40
2021/07/30 00:14:08;;;;;;;8.03;5.97;;;;;;;22.59;68.65;98793.83;1743988;81;21025;-40
2021/07/30 00:16:37;;;;;;;7.12;5.70;;;;;;;22.51;68.71;98798.88;1754985;81;21016;-40
2021/07/30 00:19:04;;;;;;;9.43;6.12;;;;;;;22.44;68.91;98803.27;1758726;81;21218;-40
2021/07/30 00:21:30;;;;;;;9.05;5.37;;;;;;;22.33;69.18;98800.91;1745240;81;21508;-40
2021/07/30 00:23:57;;;;;;;8.68;5.67;;;;;;;22.28;69.42;98797.35;1749054;81;21045;-40
2021/07/30 00:26:24;;;;;;;7.12;5.75;;;;;;;22.31;69.37;98795.09;1746051;81;20891;-40
2021/07/30 00:28:51;;;;;;;9.05;6.50;;;;;;;22.30;69.44;98794.15;1743554;81;21041;-40
2021/07/30 00:31:18;;;;;;;10.28;6.37;;;;;;;22.29;69.51;98792.60;1743033;81;21138;-40
2021/07/30 00:33:45;;;;;;;6.87;5.90;;;;;;;22.25;69.54;98789.98;1742890;81;21010;-40
2021/07/30 00:36:12;;;;;;;12.23;5.95;;;;;;;22.19;69.67;98791.78;1741946;81;21089;-40
2021/07/30 00:38:39;;;;;;;8.70;5.60;;;;;;;22.17;69.81;98783.80;1743319;81;21037;-40
2021/07/30 00:41:06;;;;;;;11.68;6.65;;;;;;;22.19;69.86;98785.48;1743513;82;21061;-40
2021/07/30 00:43:33;;;;;;;8.80;6.55;;;;;;;22.16;69.89;98781.65;1743317;81;21598;-40
2021/07/30 00:46:02;;;;;;;8.40;5.92;;;;;;;22.15;69.93;98788.99;1741969;81;21012;-40
2021/07/30 00:48:30;;;;;;;9.30;5.92;;;;;;;22.10;70.05;98782.84;1717083;82;21088;-40
2021/07/30 00:51:02;;;;;;;9.33;6.42;;;;;;;22.09;70.15;98779.91;1744072;81;21045;-40
2021/07/30 00:53:34;;;;;;;8.65;6.03;;;;;;;22.16;70.02;98778.11;1743475;81;21603;-40
2021/07/30 00:56:07;;;;;;;7.42;6.22;;;;;;;22.17;69.97;98770.00;1672000;82;21122;-40
2021/07/30 00:58:37;;;;;;;10.38;7.12;;;;;;;22.13;70.01;98769.34;1738333;81;21452;-40
2021/07/30 01:01:05;;;;;;;8.05;6.40;;;;;;;22.05;70.19;98764.70;1749166;81;20972;-40
2021/07/30 01:03:36;;;;;;;8.20;6.17;;;;;;;22.06;70.19;98757.36;1742444;82;21528;-40
2021/07/30 01:06:12;;;;;;;11.30;6.10;;;;;;;22.08;70.14;98757.66;1745801;81;21040;-40
2021/07/30 01:08:43;;;;;;;11.18;6.58;;;;;;;22.07;69.99;98760.25;1726410;82;21121;-40
2021/07/30 01:11:16;;;;;;;8.50;6.33;;;;;;;22.03;70.04;98758.24;1702379;82;20973;-40
2021/07/30 01:13:47;;;;;;;9.50;5.83;;;;;;;21.99;70.11;98754.84;1758677;81;20976;-40
2021/07/30 01:16:20;;;;;;;7.53;5.97;;;;;;;21.97;70.14;98762.05;1744261;81;21543;-40
2021/07/30 01:18:48;;;;;;;8.60;6.33;;;;;;;22.01;70.13;98762.69;1743167;81;20978;-40
2021/07/30 01:21:26;;;;;;;7.20;5.72;;;;;;;22.05;70.07;98772.38;1720116;81;21792;-40
2021/07/30 01:23:56;;;;;;;8.18;6.45;;;;;;;22.08;69.94;98768.70;1758920;80;20981;-40
2021/07/30 01:26:27;;;;;;;7.60;6.10;;;;;;;22.07;69.87;98774.06;1745583;81;21571;-40
2021/07/30 01:28:55;;;;;;;7.25;5.95;;;;;;;22.13;69.77;98775.63;1750327;81;20937;-40
2021/07/30 01:31:24;;;;;;;9.00;6.08;;;;;;;22.17;69.52;98772.16;1750519;81;21524;-40
2021/07/30 01:33:50;;;;;;;8.45;6.60;;;;;;;22.20;69.49;98781.51;1742251;81;21851;-40
2021/07/30 01:36:17;;;;;;;10.15;6.70;;;;;;;22.20;69.30;98774.61;1752077;81;21064;-40
2021/07/30 01:38:44;;;;;;;11.12;6.40;;;;;;;22.19;69.25;98775.82;1742727;81;20965;-40
2021/07/30 01:41:11;;;;;;;13.90;6.70;;;;;;;22.16;69.20;98776.13;1751647;81;21033;-40
2021/07/30 01:43:39;;;;;;;7.05;5.97;;;;;;;22.12;69.31;98770.58;1762405;80;21029;-40
2021/07/30 01:46:06;;;;;;;9.03;6.83;;;;;;;22.11;69.25;98778.09;1741043;81;21122;-40
2021/07/30 01:48:33;;;;;;;7.40;6.30;;;;;;;22.07;69.30;98772.68;1746887;81;21033;-40
2021/07/30 01:51:00;;;;;;;7.72;6.92;;;;;;;21.99;69.50;98774.17;1746931;81;21109;-40
2021/07/30 01:53:27;;;;;;;7.17;6.35;;;;;;;21.92;69.65;98775.80;1743141;82;20891;-40
2021/07/30 01:55:55;;;;;;;10.43;6.67;;;;;;;21.91;69.72;98778.39;1751139;81;21527;-40
2021/07/30 01:58:21;;;;;;;8.20;6.22;;;;;;;21.90;69.78;98779.60;1747147;81;21073;-40
2021/07/30 02:00:48;;;;;;;9.53;6.75;;;;;;;21.88;69.82;98780.65;1746275;81;20929;-40
2021/07/30 02:03:15;;;;;;;11.03;6.92;;;;;;;21.86;70.00;98778.19;1744332;81;21979;-40
2021/07/30 02:05:42;;;;;;;9.43;6.80;;;;;;;21.83;69.92;98779.10;1743547;81;20965;-41
2021/07/30 02:08:09;;;;;;;11.75;7.10;;;;;;;21.79;69.98;98784.73;1750866;81;21763;-40
2021/07/30 02:10:36;;;;;;;10.40;6.75;;;;;;;21.79;70.04;98779.20;1753256;81;21114;-40
2021/07/30 02:15:33;;;;;;;8.05;6.92;;;;;;;21.76;70.19;98775.98;1720398;81;20973;-40
2021/07/30 02:18:00;;;;;;;9.08;6.83;;;;;;;21.71;70.26;98782.07;1762145;81;20982;-40
2021/07/30 02:21:27;;;;;;;8.08;6.70;;;;;;;21.77;70.21;98778.91;1797409;79;22508;-39
2021/07/30 02:23:54;;;;;;;8.88;6.60;;;;;;;21.72;70.24;98783.62;1758716;80;21097;-39
2021/07/30 02:26:21;;;;;;;13.08;7.17;;;;;;;21.68;70.31;98788.49;1772627;81;21577;-40
2021/07/30 02:28:48;;;;;;;8.20;7.05;;;;;;;21.63;70.47;98786.30;1767014;81;21488;-39
2021/07/30 02:31:15;;;;;;;7.97;6.83;;;;;;;21.60;70.46;98794.85;1766653;80;20897;-40
2021/07/30 02:33:41;;;;;;;9.63;7.10;;;;;;;21.62;70.45;98797.17;1763262;81;20917;-39
2021/07/30 02:36:08;;;;;;;11.90;6.42;;;;;;;21.66;70.45;98795.83;1754124;80;21013;-39
2021/07/30 02:38:35;;;;;;;10.90;7.37;;;;;;;21.69;70.35;98799.06;1754996;80;21793;-39
2021/07/30 02:41:02;;;;;;;9.23;7.00;;;;;;;21.74;70.24;98794.19;1761753;80;21487;-39
2021/07/30 02:43:28;;;;;;;9.03;6.75;;;;;;;21.74;70.04;98794.95;1757234;80;20933;-39
2021/07/30 02:45:56;;;;;;;9.08;6.80;;;;;;;21.74;70.05;98799.70;1763700;81;21022;-39
2021/07/30 02:48:24;;;;;;;9.00;6.40;;;;;;;21.83;69.87;98807.47;1757773;80;21562;-40
2021/07/30 02:50:51;;;;;;;8.30;7.05;;;;;;;21.89;69.69;98802.89;1753299;81;21191;-39
2021/07/30 02:53:18;;;;;;;8.55;7.55;;;;;;;21.91;69.43;98800.47;1756912;81;21044;-39
2021/07/30 02:55:48;;;;;;;8.90;7.22;;;;;;;21.90;69.30;98807.20;1745357;81;20918;-40
2021/07/30 02:58:15;;;;;;;8.48;7.40;;;;;;;21.86;69.37;98810.70;1765619;81;21004;-39
2021/07/30 03:00:42;;;;;;;9.35;6.58;;;;;;;21.81;69.43;98812.66;1756666;81;21499;-39
2021/07/30 03:03:09;;;;;;;8.85;6.90;;;;;;;21.83;69.38;98808.85;1764417;80;21903;-39
2021/07/30 03:05:36;;;;;;;8.33;6.80;;;;;;;21.87;69.32;98809.48;1757097;81;21048;-39
2021/07/30 03:08:03;;;;;;;12.65;7.72;;;;;;;21.91;69.19;98812.11;1755342;80;20926;-39
2021/07/30 03:10:29;;;;;;;10.50;7.78;;;;;;;21.90;69.04;98814.10;1754354;81;20965;-39
2021/07/30 03:12:56;;;;;;;8.93;7.15;;;;;;;21.90;69.08;98823.77;1756956;81;21076;-40
2021/07/30 03:15:22;;;;;;;9.25;7.12;;;;;;;21.91;68.95;98818.41;1757707;81;21135;-39
2021/07/30 03:17:51;;;;;;;8.63;7.35;;;;;;;21.93;68.90;98830.39;1758135;81;21060;-39
2021/07/30 03:20:18;;;;;;;12.00;7.62;;;;;;;21.92;68.98;98831.00;1759911;81;20961;-40
2021/07/30 03:22:44;;;;;;;8.60;7.62;;;;;;;21.89;69.08;98834.63;1770476;81;20925;-40
2021/07/30 03:25:12;;;;;;;8.03;6.53;;;;;;;21.83;69.12;98839.20;1769865;81;21479;-40
2021/07/30 03:27:42;;;;;;;8.85;7.10;;;;;;;21.80;69.32;98842.84;1755615;80;21923;-39
2021/07/30 03:30:12;;;;;;;8.80;7.25;;;;;;;21.78;69.51;98841.16;1759891;81;21475;-39
2021/07/30 03:32:40;;;;;;;9.13;7.75;;;;;;;21.80;69.62;98841.46;1760337;81;21545;-39
2021/07/30 03:35:08;;;;;;;9.23;7.55;;;;;;;21.77;69.70;98845.13;1756690;81;21692;-39
2021/07/30 03:37:35;;;;;;;8.30;7.28;;;;;;;21.74;69.71;98854.28;1763059;81;21006;-40
2021/07/30 03:40:04;;;;;;;7.33;6.62;;;;;;;21.75;69.87;98855.83;1756164;81;21088;-39
2021/07/30 03:42:30;;;;;;;9.28;7.45;;;;;;;21.80;69.85;98864.14;1755651;81;21551;-40
2021/07/30 03:44:58;;;;;;;9.10;7.60;;;;;;;21.83;69.85;98866.03;1755203;80;20969;-40
2021/07/30 03:47:25;;;;;;;9.48;7.22;;;;;;;21.83;69.98;98864.04;1759546;81;20937;-40
2021/07/30 03:49:51;;;;;;;10.30;7.60;;;;;;;21.85;69.85;98867.71;1756216;81;21017;-40
2021/07/30 03:52:18;;;;;;;10.53;7.08;;;;;;;21.90;69.85;98867.92;1755654;81;21123;-40
2021/07/30 03:54:45;;;;;;;11.08;7.45;;;;;;;22.01;69.54;98868.35;1755115;81;20985;-40
2021/07/30 03:57:12;;;;;;;10.63;7.90;;;;;;;22.07;69.53;98870.68;1762327;81;21099;-40
2021/07/30 03:59:39;;;;;;;9.38;7.78;;;;;;;22.10;69.26;98879.47;1756378;81;21028;-39
2021/07/30 04:02:05;;;;;;;8.43;7.55;;;;;;;22.13;69.50;98886.06;1756125;81;21390;-40
2021/07/30 04:04:33;;;;;;;9.10;8.00;;;;;;;22.20;69.44;98882.29;1756377;81;21143;-40
2021/07/30 04:07:00;;;;;;;9.20;8.30;;;;;;;22.26;69.20;98883.27;1671212;83;21008;-40
2021/07/30 04:09:27;;;;;;;9.85;8.23;;;;;;;22.29;69.36;98885.11;1719999;83;21491;-40
2021/07/30 04:11:53;;;;;;;10.48;8.75;;;;;;;22.31;69.27;98885.45;1693079;83;21022;-40
2021/07/30 04:14:20;;;;;;;10.05;9.05;;;;;;;22.29;69.33;98887.87;1709948;83;21041;-40
2021/07/30 04:16:47;;;;;;;10.03;8.10;;;;;;;22.28;69.50;98885.72;1703753;83;21590;-40
2021/07/30 04:19:15;;;;;;;9.00;8.00;;;;;;;22.32;69.71;98895.25;1709728;83;21037;-40
2021/07/30 04:21:42;;;;;;;14.05;8.73;;;;;;;22.37;69.42;98891.91;1705015;83;21002;-40
2021/07/30 04:24:09;;;;;;;12.50;9.08;;;;;;;22.42;69.42;98899.62;1701504;83;21551;-39
2021/07/30 04:26:36;;;;;;;9.23;8.35;;;;;;;22.45;69.57;98897.36;1697596;83;21085;-40
2021/07/30 04:29:02;;;;;;;11.50;8.80;;;;;;;22.49;69.25;98901.53;1705207;83;21146;-39
2021/07/30 04:31:31;;;;;;;11.03;7.83;;;;;;;22.51;69.02;98899.70;1697054;84;21029;-40
2021/07/30 04:33:57;;;;;;;10.30;8.80;;;;;;;22.52;69.03;98906.75;1700119;84;21033;-39
2021/07/30 04:36:26;;;;;;;9.25;8.45;;;;;;;22.58;68.73;98905.56;1697791;84;22167;-39
2021/07/30 04:38:52;;;;;;;9.48;8.43;;;;;;;22.61;69.00;98906.80;1691488;84;21018;-40
2021/07/30 04:41:19;;;;;;;10.18;9.15;;;;;;;22.67;69.20;98905.61;1691611;84;21152;-40
2021/07/30 04:43:45;;;;;;;9.53;8.53;;;;;;;22.71;69.11;98902.91;1703495;83;20985;-40
2021/07/30 04:46:16;;;;;;;9.33;8.43;;;;;;;22.79;69.04;98903.42;1698311;83;21116;-40
2021/07/30 04:48:43;;;;;;;10.48;8.43;;;;;;;22.87;68.72;98910.21;1707393;83;20994;-40
2021/07/30 04:51:13;;;;;;;9.45;8.45;;;;;;;22.92;68.83;98909.02;1714931;82;21065;-40
2021/07/30 04:53:40;;;;;;;11.70;9.43;;;;;;;23.00;68.80;98907.34;1718642;83;21909;-39
2021/07/30 04:56:07;;;;;;;11.43;9.85;;;;;;;23.05;68.52;98909.52;1714585;83;21823;-40
2021/07/30 04:58:34;;;;;;;11.38;9.35;;;;;;;23.07;68.48;98908.46;1715149;83;21514;-40
2021/07/30 05:01:04;;;;;;;9.78;8.43;;;;;;;23.14;68.43;98910.97;1706528;84;20985;-40
2021/07/30 05:03:31;;;;;;;10.20;9.10;;;;;;;23.25;68.39;98904.37;1689794;83;21569;-40
2021/07/30 05:05:58;;;;;;;12.03;9.50;;;;;;;23.36;68.38;98907.50;1722530;81;21862;-40
2021/07/30 05:08:25;;;;;;;10.15;9.15;;;;;;;23.43;67.98;98911.98;1751433;81;21562;-40
2021/07/30 05:10:52;;;;;;;10.90;9.80;;;;;;;23.46;68.19;98916.63;1752124;81;20927;-40
2021/07/30 05:13:20;;;;;;;11.45;9.05;;;;;;;23.51;67.96;98914.03;1765551;81;21244;-40
2021/07/30 05:15:47;;;;;;;10.65;9.65;;;;;;;23.54;67.66;98918.64;1768514;81;20974;-40
2021/07/30 05:18:13;;;;;;;10.93;9.63;;;;;;;23.62;67.33;98926.05;1765040;80;21121;-40
2021/07/30 05:20:41;;;;;;;10.58;9.48;;;;;;;23.66;67.39;98920.52;1745646;81;21043;-40
2021/07/30 05:23:09;;;;;;;10.28;9.18;;;;;;;23.68;67.48;98924.20;1751101;81;21013;-40
2021/07/30 05:25:36;;;;;;;11.80;10.13;;;;;;;23.69;67.67;98918.21;1750302;81;21287;-40
2021/07/30 05:28:04;;;;;;;11.30;8.98;;;;;;;23.69;67.59;98923.75;1759062;81;21084;-40
2021/07/30 05:30:31;;;;;;;10.88;9.15;;;;;;;23.69;67.23;98922.36;1754210;81;21087;-40
2021/07/30 05:32:58;;;;;;;9.95;8.90;;;;;;;23.72;67.50;98922.82;1749345;81;20992;-40
2021/07/30 05:35:24;;;;;;;10.65;9.48;;;;;;;23.75;67.39;98921.92;1753134;81;21080;-40
2021/07/30 05:37:51;;;;;;;10.65;9.48;;;;;;;23.78;67.85;98921.60;1754867;81;20967;-40
2021/07/30 05:40:18;;;;;;;13.93;8.95;;;;;;;23.86;67.85;98929.02;1755390;80;21092;-40
2021/07/30 05:42:45;;;;;;;14.38;8.60;;;;;;;23.94;67.67;98927.47;1701120;83;21137;-40
2021/07/30 05:45:12;;;;;;;9.68;8.63;;;;;;;24.04;67.58;98931.18;1691537;83;21035;-40
2021/07/30 05:47:39;;;;;;;10.85;9.45;;;;;;;24.13;67.15;98927.64;1717974;82;21263;-40
2021/07/30 05:50:09;;;;;;;10.25;9.25;;;;;;;24.20;67.08;98934.30;1706340;82;20996;-40
2021/07/30 05:52:36;;;;;;;11.22;9.18;;;;;;;24.29;66.81;98931.52;1715156;83;21507;-40
2021/07/30 05:55:05;;;;;;;9.63;8.70;;;;;;;24.34;66.67;98927.37;1707894;83;21990;-40
2021/07/30 05:57:36;;;;;;;9.48;8.40;;;;;;;24.39;65.83;98923.36;1714697;83;21033;-40
2021/07/30 06:00:06;;;;;;;9.05;8.18;;;;;;;24.49;64.98;98926.89;1718356;83;21547;-40
2021/07/30 06:02:35;;;;;;;8.63;7.72;;;;;;;24.53;65.19;98926.89;1716125;83;21060;-40
2021/07/30 06:05:03;;;;;;;9.50;8.35;;;;;;;24.60;64.96;98933.48;1715171;83;21057;-40
2021/07/30 06:07:33;;;;;;;9.70;8.78;;;;;;;24.63;64.45;98925.64;1707704;83;21123;-40
2021/07/30 06:09:59;;;;;;;10.13;8.30;;;;;;;24.67;64.07;98933.17;1714898;83;21024;-40
2021/07/30 06:12:26;;;;;;;9.78;8.03;;;;;;;24.73;64.54;98935.32;1704447;82;21029;-40
2021/07/30 06:14:52;;;;;;;9.88;8.48;;;;;;;24.82;64.14;98929.14;1709747;83;20974;-41
2021/07/30 06:17:19;;;;;;;9.73;7.55;;;;;;;24.91;63.38;98927.75;1709065;83;21037;-40
2021/07/30 06:19:46;;;;;;;9.20;8.10;;;;;;;24.98;63.96;98925.28;1711852;83;21109;-40
2021/07/30 06:22:12;;;;;;;10.78;8.30;;;;;;;25.06;63.43;98925.09;1689709;83;21065;-40
2021/07/30 06:24:39;;;;;;;9.48;7.85;;;;;;;25.13;62.51;98920.58;1691280;84;20968;-40
2021/07/30 06:27:06;;;;;;;12.33;9.13;;;;;;;25.18;62.66;98921.94;1694111;84;21086;-40
2021/07/30 06:29:34;;;;;;;11.97;8.05;;;;;;;25.25;63.01;98924.39;1700953;84;21089;-40
2021/07/30 06:32:00;;;;;;;9.23;8.23;;;;;;;25.33;62.17;98918.64;1698294;84;21162;-40
2021/07/30 06:34:27;;;;;;;9.28;8.25;;;;;;;25.40;61.52;98916.31;1694511;84;20991;-40
2021/07/30 06:36:56;;;;;;;10.30;8.35;;;;;;;25.41;62.10;98916.46;1702354;84;20951;-40
2021/07/30 06:39:24;;;;;;;10.25;8.23;;;;;;;25.41;62.19;98916.46;1693302;84;20977;-40
2021/07/30 06:41:51;;;;;;;10.35;8.80;;;;;;;25.45;61.66;98921.22;1693802;84;21057;-40
2021/07/30 06:44:18;;;;;;;10.05;8.45;;;;;;;25.49;60.68;98916.88;1695586;84;21872;-40
2021/07/30 06:46:45;;;;;;;9.00;8.05;;;;;;;25.51;60.83;98916.53;1689503;84;21044;-40
2021/07/30 06:49:12;;;;;;;8.83;7.92;;;;;;;25.58;61.66;98918.85;1717726;83;21088;-40
2021/07/30 06:51:39;;;;;;;9.38;7.17;;;;;;;25.72;61.64;98920.30;1703669;83;21752;-40
2021/07/30 06:54:06;;;;;;;12.47;7.90;;;;;;;25.86;60.49;98913.27;1705058;83;21069;-40
2021/07/30 06:56:34;;;;;;;9.23;7.90;;;;;;;25.97;60.80;98912.11;1705212;83;21965;-40
2021/07/30 06:59:01;;;;;;;9.23;7.40;;;;;;;26.05;59.49;98911.12;1718056;83;20957;-40
2021/07/30 07:01:28;;;;;;;7.85;7.15;;;;;;;26.11;59.04;98914.16;1700215;83;20991;-40
2021/07/30 07:03:55;;;;;;;9.48;7.83;;;;;;;26.21;59.55;98912.08;1718739;82;21027;-41
2021/07/30 07:06:22;;;;;;;9.43;7.37;;;;;;;26.28;59.31;98906.96;1716832;82;21097;-41
2021/07/30 07:08:49;;;;;;;8.58;7.60;;;;;;;26.38;58.41;98900.70;1719566;83;21563;-41
2021/07/30 07:11:17;;;;;;;7.80;7.10;;;;;;;26.44;57.92;98901.55;1719494;83;21567;-41
2021/07/30 07:13:45;;;;;;;7.83;7.03;;;;;;;26.50;57.35;98897.48;1715168;83;21010;-41
2021/07/30 07:16:11;;;;;;;9.78;7.12;;;;;;;26.56;55.86;98906.69;1717524;82;20967;-41
2021/07/30 07:18:38;;;;;;;8.43;7.62;;;;;;;26.58;56.22;98905.58;1693495;83;21047;-41
2021/07/30 07:21:05;;;;;;;9.05;6.70;;;;;;;26.62;56.48;98910.34;1685640;85;21670;-42
2021/07/30 07:23:31;;;;;;;9.43;7.05;;;;;;;26.68;56.73;98913.34;1684179;85;21575;-42
2021/07/30 07:26:00;;;;;;;8.25;7.25;;;;;;;26.74;54.93;98917.00;1690604;83;21033;-42
2021/07/30 07:28:27;;;;;;;9.60;7.03;;;;;;;26.78;55.36;98912.63;1706032;83;21010;-42
2021/07/30 07:30:54;;;;;;;9.43;7.15;;;;;;;26.82;55.22;98911.19;1714190;83;21052;-42
2021/07/30 07:33:20;;;;;;;7.28;6.58;;;;;;;26.91;55.75;98912.38;1714882;83;21785;-42
2021/07/30 07:35:47;;;;;;;7.30;6.60;;;;;;;27.02;55.28;98913.93;1701852;84;21041;-42
2021/07/30 07:38:14;;;;;;;9.30;7.08;;;;;;;27.10;53.54;98922.81;1705225;83;21587;-42
2021/07/30 07:40:44;;;;;;;7.87;6.83;;;;;;;27.15;54.28;98922.14;1719592;83;21053;-42
2021/07/30 07:43:12;;;;;;;8.43;6.92;;;;;;;27.21;53.83;98922.97;1711526;82;21024;-42
2021/07/30 07:45:39;;;;;;;9.25;6.92;;;;;;;27.26;53.81;98924.30;1722992;83;21184;-42
2021/07/30 07:48:06;;;;;;;8.05;6.70;;;;;;;27.36;53.78;98923.56;1720779;82;21096;-42
2021/07/30 07:50:33;;;;;;;7.25;6.55;;;;;;;27.48;54.62;98931.61;1715155;83;21020;-42
2021/07/30 07:53:00;;;;;;;9.28;6.55;;;;;;;27.53;53.22;98932.34;1728745;81;21016;-42
2021/07/30 07:55:27;;;;;;;8.20;6.75;;;;;;;27.51;52.40;98934.84;1728005;81;21793;-42
2021/07/30 07:57:53;;;;;;;8.15;7.35;;;;;;;27.50;52.82;98928.34;1749181;81;21129;-42
2021/07/30 08:00:20;;;;;;;8.35;7.33;;;;;;;27.55;52.88;98931.22;1752206;81;21077;-42
2021/07/30 08:02:47;;;;;;;8.08;6.60;;;;;;;27.59;53.79;98940.78;1754680;81;21104;-43
2021/07/30 08:05:14;;;;;;;7.47;6.35;;;;;;;27.56;52.26;98932.75;1751216;82;21498;-42
2021/07/30 08:07:41;;;;;;;6.65;6.05;;;;;;;27.54;52.03;98931.09;1730083;82;21086;-42
2021/07/30 08:10:09;;;;;;;7.17;6.53;;;;;;;27.57;50.69;98937.70;1715723;82;21163;-42
2021/07/30 08:12:35;;;;;;;7.55;6.78;;;;;;;27.64;51.21;98935.91;1690796;83;21588;-42
2021/07/30 08:15:04;;;;;;;8.23;6.90;;;;;;;27.73;51.33;98938.56;1705184;83;20944;-42
2021/07/30 08:17:31;;;;;;;7.10;6.40;;;;;;;27.83;51.22;98938.58;1681389;85;21483;-42
2021/07/30 08:19:58;;;;;;;7.15;6.40;;;;;;;27.95;51.00;98937.45;1711552;82;21071;-42
2021/07/30 08:22:25;;;;;;;7.15;6.30;;;;;;;28.10;50.20;98943.72;1705530;82;21148;-42
2021/07/30 08:24:52;;;;;;;6.83;5.60;;;;;;;28.23;48.96;98941.22;1704032;83;21519;-42
2021/07/30 08:27:19;;;;;;;8.63;5.45;;;;;;;28.32;48.14;98931.34;1699223;83;21542;-42
2021/07/30 08:29:46;;;;;;;7.92;5.40;;;;;;;28.45;47.34;98930.33;1708962;83;20953;-42
2021/07/30 08:32:13;;;;;;;6.92;6.05;;;;;;;28.59;46.36;98932.24;1695001;82;21069;-42
2021/07/30 08:34:41;;;;;;;6.62;5.92;;;;;;;28.71;47.35;98926.16;1723614;82;22327;-42
2021/07/30 08:37:07;;;;;;;7.65;6.40;;;;;;;28.83;48.10;98926.41;1700970;82;20906;-42
2021/07/30 08:39:34;;;;;;;6.97;6.08;;;;;;;28.95;47.77;98930.19;1723483;82;21088;-42
2021/07/30 08:42:04;;;;;;;7.55;5.40;;;;;;;29.05;46.28;98933.55;1714538;82;21014;-42
2021/07/30 08:44:31;;;;;;;6.47;5.87;;;;;;;29.13;47.35;98932.49;1726414;82;21061;-42
2021/07/30 08:46:58;;;;;;;8.60;5.58;;;;;;;29.20;45.82;98932.02;1698119;82;21835;-42
2021/07/30 08:49:26;;;;;;;6.08;5.50;;;;;;;29.22;44.50;98927.48;1712173;82;20948;-43
2021/07/30 08:52:10;;;;;;;5.30;4.80;;;;;;;29.27;44.43;98930.19;1705521;82;21021;-42
2021/07/30 08:54:39;;;;;;;5.60;4.83;;;;;;;29.38;44.65;98934.48;1707098;84;21080;-42
2021/07/30 08:57:09;;;;;;;5.70;4.90;;;;;;;29.49;42.49;98923.36;1707438;83;21069;-42
2021/07/30 08:59:41;;;;;;;5.30;4.67;;;;;;;29.59;43.61;98924.70;1708794;82;21160;-42
2021/07/30 09:02:07;;;;;;;5.05;4.35;;;;;;;29.69;42.64;98928.05;1727500;82;28743;-42
2021/07/30 09:04:33;;;;;;;6.40;4.78;;;;;;;29.74;40.70;98930.88;1709782;83;20922;-43
2021/07/30 09:07:02;;;;;;;9.28;4.70;;;;;;;29.70;40.57;98933.14;1703327;83;21544;-42
2021/07/30 09:09:31;;;;;;;5.75;4.70;;;;;;;29.63;40.64;98923.83;1696037;82;21484;-42
2021/07/30 09:12:01;;;;;;;6.20;4.78;;;;;;;29.58;40.35;98925.95;1712921;82;21116;-42
2021/07/30 09:14:36;;;;;;;5.40;4.90;;;;;;;29.57;39.19;98932.06;1719652;82;20977;-42
2021/07/30 09:17:04;;;;;;;5.30;4.70;;;;;;;29.55;39.83;98929.75;1708786;82;21024;-42
2021/07/30 09:19:32;;;;;;;5.05;4.55;;;;;;;29.50;39.11;98924.90;1703148;82;21575;-42
2021/07/30 09:22:09;;;;;;;5.20;4.70;;;;;;;29.50;40.28;98927.69;1716756;82;21044;-42
2021/07/30 09:24:40;;;;;;;5.37;4.78;;;;;;;29.31;40.54;98896.61;1700007;82;21210;-42
2021/07/30 09:27:11;;;;;;;4.70;4.30;;;;;;;29.56;40.11;98919.34;1718964;82;21033;-42
2021/07/30 09:29:39;;;;;;;5.05;4.45;;;;;;;29.65;40.62;98920.54;1724661;82;21004;-42
2021/07/30 09:32:11;;;;;;;5.50;4.80;;;;;;;29.75;40.70;98919.07;1688543;82;21578;-42
2021/07/30 09:34:46;;;;;;;6.22;5.03;;;;;;;29.85;39.71;98914.80;1726716;82;20985;-42
2021/07/30 09:37:21;;;;;;;6.22;5.15;;;;;;;29.85;40.41;98917.59;1680214;83;21087;-42
2021/07/30 09:39:51;;;;;;;6.58;4.78;;;;;;;29.78;39.00;98922.25;1674863;85;21839;-42
2021/07/30 09:42:23;;;;;;;5.03;4.42;;;;;;;29.65;39.11;98921.94;1664645;85;21046;-42
2021/07/30 09:44:56;;;;;;;5.65;5.08;;;;;;;29.59;39.00;98917.71;1648403;85;21085;-42
2021/07/30 09:47:31;;;;;;;5.05;4.55;;;;;;;29.59;40.78;98914.92;1681472;85;21048;-42
2021/07/30 09:50:07;;;;;;;4.92;4.45;;;;;;;29.67;39.60;98916.00;1715002;82;21804;-42
2021/07/30 09:52:36;;;;;;;6.17;4.72;;;;;;;29.77;39.05;98919.34;1714307;82;20894;-42
2021/07/30 09:55:10;;;;;;;5.30;4.80;;;;;;;29.79;39.57;98916.17;1694948;83;21095;-42
2021/07/30 09:57:41;;;;;;;4.90;4.40;;;;;;;29.79;38.88;98912.61;1694017;82;21539;-42
2021/07/30 10:00:10;;;;;;;4.90;4.28;;;;;;;29.81;39.23;98911.48;1718680;82;21044;-42
2021/07/30 10:02:41;;;;;;;5.62;4.60;;;;;;;29.88;39.43;98906.80;1707253;83;21110;-42
2021/07/30 10:05:12;;;;;;;6.45;4.97;;;;;;;29.98;38.76;98908.14;1681738;85;21009;-43
2021/07/30 10:07:41;;;;;;;6.42;3.95;;;;;;;30.08;37.80;98912.25;1686262;82;21024;-42
2021/07/30 10:10:16;;;;;;;4.70;4.30;;;;;;;30.18;37.54;98911.39;1736693;82;21096;-42
2021/07/30 10:12:48;;;;;;;5.30;3.85;;;;;;;30.25;37.51;98908.12;1736540;82;21092;-42
2021/07/30 10:15:15;;;;;;;3.98;3.67;;;;;;;30.36;37.34;98905.33;1732837;82;21113;-42
2021/07/30 10:17:56;;;;;;;5.17;4.60;;;;;;;30.53;36.98;98905.40;1717379;83;21005;-42
2021/07/30 10:20:24;;;;;;;5.53;4.83;;;;;;;30.56;35.79;98900.95;1717153;83;21041;-42
2021/07/30 10:22:59;;;;;;;5.70;4.67;;;;;;;30.57;36.03;98905.28;1719936;83;21042;-42
2021/07/30 10:25:38;;;;;;;4.87;4.37;;;;;;;30.59;36.26;98901.34;1731526;82;21107;-42
2021/07/30 10:28:27;;;;;;;6.90;5.03;;;;;;;30.76;37.34;98890.78;1727580;82;21569;-42
2021/07/30 10:30:56;;;;;;;6.28;4.70;;;;;;;30.95;37.21;98891.16;1726611;82;20941;-42
2021/07/30 10:33:42;;;;;;;5.33;4.50;;;;;;;31.14;36.93;98891.43;1727383;82;21029;-42
2021/07/30 10:36:12;;;;;;;4.42;4.03;;;;;;;31.34;36.26;98894.58;1707394;83;21097;-42
2021/07/30 10:38:40;;;;;;;4.50;4.03;;;;;;;31.49;35.67;98878.25;1727119;82;21090;-42
2021/07/30 10:41:13;;;;;;;4.70;4.30;;;;;;;31.74;34.14;98884.83;1724727;82;21160;-42
2021/07/30 10:44:03;;;;;;;5.00;4.37;;;;;;;31.89;33.83;98881.07;1744122;82;21573;-42
2021/07/30 10:46:30;;;;;;;;;;;;;;;31.99;34.12;98880.13;1748986;82;20996;-42
2021/07/30 10:48:57;;;;;;;4.20;3.80;;;;;;;32.08;34.98;98879.83;1725896;82;20179;-43
2021/07/30 10:51:27;;;;;;;4.85;4.35;;;;;;;31.96;34.84;98882.55;1724267;83;21568;-42
2021/07/30 10:54:04;;;;;;;4.47;4.08;;;;;;;31.88;35.50;98880.94;1728960;82;21744;-42
2021/07/30 10:56:41;;;;;;;4.08;3.67;;;;;;;31.79;34.77;98879.20;1739065;82;21013;-43
2021/07/30 10:59:07;;;;;;;5.70;3.87;;;;;;;31.85;32.76;98876.38;1728986;82;20978;-42
2021/07/30 11:01:41;;;;;;;4.15;3.85;;;;;;;31.98;33.72;98872.98;1729416;82;21008;-42
2021/07/30 11:04:11;;;;;;;4.40;4.00;;;;;;;32.00;33.95;98869.05;1734750;82;21092;-42
2021/07/30 11:06:47;;;;;;;4.62;4.22;;;;;;;31.86;33.88;98863.86;1728359;82;21178;-43
2021/07/30 11:09:17;;;;;;;5.25;3.95;;;;;;;31.95;34.72;98864.98;1719698;82;21377;-42
2021/07/30 11:11:58;;;;;;;3.72;3.42;;;;;;;32.19;34.14;98858.13;1716680;83;20976;-42
2021/07/30 11:14:35;;;;;;;3.80;3.47;;;;;;;32.45;33.06;98856.28;1716911;82;22195;-42
2021/07/30 11:17:08;;;;;;;5.30;4.10;;;;;;;32.78;32.93;98856.68;1731098;82;21040;-42
2021/07/30 11:19:37;;;;;;;4.67;4.17;;;;;;;33.04;32.55;98859.77;1728807;82;21135;-42
2021/07/30 11:22:11;;;;;;;5.37;3.80;;;;;;;33.09;32.11;98849.13;1715860;82;20976;-43
2021/07/30 11:24:45;;;;;;;4.22;3.80;;;;;;;33.02;32.37;98846.88;1726495;82;21510;-43
2021/07/30 11:27:14;;;;;;;5.28;4.03;;;;;;;32.82;32.76;98857.17;1726708;83;21042;-43
2021/07/30 11:29:49;;;;;;;5.08;4.20;;;;;;;32.37;33.30;98855.96;1728681;82;21542;-42
2021/07/30 11:32:17;;;;;;;6.37;3.92;;;;;;;31.93;33.66;98856.32;1725977;82;21120;-42
2021/07/30 11:34:49;;;;;;;6.33;4.10;;;;;;;31.54;34.80;98856.45;1732996;82;21120;-42
2021/07/30 11:37:30;;;;;;;4.58;4.12;;;;;;;31.22;36.02;98851.84;1710015;82;20965;-43
2021/07/30 11:39:57;;;;;;;4.85;4.30;;;;;;;30.92;36.60;98849.44;1738901;82;21522;-42
2021/07/30 11:42:28;;;;;;;4.95;4.25;;;;;;;30.62;37.93;98847.16;1727450;82;21078;-43